createdAt,value
2019-02-19T01:00:21.155Z,1.72
2019-02-19T01:02:52.733Z,1.73
2019-02-19T01:05:24.362Z,1.76
2019-02-19T01:07:55.879Z,1.74
2019-02-19T01:10:27.471Z,1.70
2019-02-19T01:12:58.920Z,1.58
2019-02-19T01:15:30.517Z,1.63
2019-02-19T01:18:01.991Z,1.59
2019-02-19T01:20:33.636Z,1.55
2019-02-19T01:23:05.200Z,1.52
2019-02-19T01:25:36.700Z,1.48
2019-02-19T01:28:08.241Z,1.54
2019-02-19T01:30:39.731Z,1.58
2019-02-19T01:33:11.377Z,1.68
2019-02-19T01:35:42.933Z,1.72
2019-02-19T01:38:16.711Z,1.76
2019-02-19T01:40:49.185Z,1.71
2019-02-19T01:43:20.731Z,1.72
2019-02-19T01:45:52.341Z,1.75
2019-02-19T01:48:25.321Z,1.71
2019-02-19T01:50:56.977Z,1.68
2019-02-19T01:53:28.649Z,1.68
2019-02-19T01:56:00.200Z,1.60
2019-02-19T01:58:31.791Z,1.54
2019-02-19T02:01:03.374Z,1.56
2019-02-19T02:03:35.016Z,1.57
2019-02-19T02:06:06.596Z,1.56
2019-02-19T02:08:38.223Z,1.51
2019-02-19T02:11:09.733Z,1.52
2019-02-19T02:13:41.437Z,1.49
2019-02-19T02:16:15.278Z,1.48
2019-02-19T02:18:46.722Z,1.50
2019-02-19T02:21:19.404Z,1.54
2019-02-19T02:23:50.990Z,1.59
2019-02-19T02:26:22.491Z,1.65
2019-02-19T02:28:56.790Z,1.66
2019-02-19T02:31:28.416Z,1.70
2019-02-19T02:34:00.044Z,1.74
2019-02-19T02:36:31.600Z,1.75
2019-02-19T02:39:03.515Z,1.80
2019-02-19T02:41:35.859Z,1.86
2019-02-19T02:44:07.446Z,1.92
2019-02-19T02:46:39.166Z,2.00
2019-02-19T02:49:10.685Z,2.08
2019-02-19T02:51:42.263Z,2.13
2019-02-19T02:54:15.540Z,2.14
2019-02-19T02:56:47.122Z,2.12
2019-02-19T02:59:18.567Z,2.09
2019-02-19T03:01:50.145Z,1.96
2019-02-19T03:04:21.686Z,1.97
2019-02-19T03:07:05.306Z,1.91
2019-02-19T03:09:36.884Z,1.82
2019-02-19T03:12:09.734Z,1.75
2019-02-19T03:14:42.160Z,1.69
2019-02-19T03:17:13.729Z,1.64
2019-02-19T03:19:45.247Z,1.63
2019-02-19T03:22:20.555Z,1.62
2019-02-19T03:24:52.071Z,1.65
2019-02-19T03:27:23.688Z,1.53
2019-02-19T03:29:55.112Z,1.57
2019-02-19T03:32:26.565Z,1.50
2019-02-19T03:34:58.076Z,1.45
2019-02-19T03:37:29.600Z,1.46
2019-02-19T03:40:01.247Z,1.50
2019-02-19T03:42:33.977Z,1.47
2019-02-19T03:45:06.432Z,1.44
2019-02-19T03:47:38.037Z,1.43
2019-02-19T03:50:09.809Z,1.43
2019-02-19T03:52:41.369Z,1.44
2019-02-19T03:55:12.428Z,1.43
2019-02-19T03:57:44.021Z,1.39
2019-02-19T04:00:31.925Z,1.36
2019-02-19T04:03:03.783Z,1.38
2019-02-19T04:05:35.352Z,1.31
2019-02-19T04:08:06.916Z,1.27
2019-02-19T04:10:38.383Z,1.28
2019-02-19T04:13:09.939Z,1.34
2019-02-19T04:15:41.612Z,1.39
2019-02-19T04:18:13.095Z,1.52
2019-02-19T04:20:44.803Z,1.60
2019-02-19T04:23:16.340Z,1.58
2019-02-19T04:25:47.855Z,1.63
2019-02-19T04:28:19.442Z,1.64
2019-02-19T04:30:50.892Z,1.65
2019-02-19T04:33:22.376Z,1.63
2019-02-19T04:35:53.871Z,1.62
2019-02-19T04:38:25.388Z,1.64
2019-02-19T04:40:56.980Z,1.68
2019-02-19T04:43:28.446Z,1.68
2019-02-19T04:45:59.950Z,1.76
2019-02-19T04:48:31.417Z,1.75
2019-02-19T04:51:02.953Z,1.79
2019-02-19T04:53:34.427Z,1.83
2019-02-19T04:56:06.025Z,1.84
2019-02-19T04:58:39.817Z,1.84
2019-02-19T05:01:11.574Z,1.86
2019-02-19T05:03:43.553Z,1.85
2019-02-19T05:06:15.277Z,1.82
2019-02-19T05:08:46.876Z,1.78
2019-02-19T05:11:18.443Z,1.73
2019-02-19T05:13:50.019Z,1.72
2019-02-19T05:16:21.554Z,1.75
2019-02-19T05:18:53.215Z,1.81
2019-02-19T05:21:24.789Z,1.79
2019-02-19T05:23:56.343Z,1.82
2019-02-19T05:26:29.250Z,1.84
2019-02-19T05:29:00.803Z,1.89
2019-02-19T05:31:32.336Z,1.86
2019-02-19T05:34:04.032Z,1.88
2019-02-19T05:36:35.548Z,1.96
2019-02-19T05:39:07.241Z,1.96
2019-02-19T05:41:38.769Z,1.93
2019-02-19T05:44:11.578Z,1.94
2019-02-19T05:46:49.589Z,1.90
2019-02-19T05:49:16.285Z,1.96
2019-02-19T05:51:48.879Z,1.89
2019-02-19T05:54:20.414Z,1.84
2019-02-19T05:56:51.905Z,1.74
2019-02-19T05:59:23.434Z,1.70
2019-02-19T06:01:54.938Z,1.69
2019-02-19T06:04:26.411Z,1.66
2019-02-19T06:06:57.906Z,1.53
2019-02-19T06:09:29.305Z,1.54
2019-02-19T06:12:00.777Z,1.49
2019-02-19T06:14:32.328Z,1.53
2019-02-19T06:17:03.832Z,1.59
2019-02-19T06:19:35.293Z,1.67
2019-02-19T06:22:06.901Z,1.71
2019-02-19T06:24:38.542Z,1.73
2019-02-19T06:27:10.239Z,1.76
2019-02-19T06:29:41.682Z,1.81
2019-02-19T06:32:13.250Z,1.83
2019-02-19T06:34:44.777Z,1.89
2019-02-19T06:37:16.264Z,1.97
2019-02-19T06:39:47.791Z,2.08
2019-02-19T06:42:19.341Z,2.17
2019-02-19T06:44:50.790Z,2.24
2019-02-19T06:47:22.267Z,2.32
2019-02-19T06:49:53.723Z,2.45
2019-02-19T06:52:25.202Z,2.55
2019-02-19T06:54:56.677Z,2.63
2019-02-19T06:57:28.071Z,2.72
2019-02-19T06:59:59.514Z,2.80
2019-02-19T07:02:45.885Z,2.87
2019-02-19T07:05:22.594Z,2.96
2019-02-19T07:07:56.546Z,3.01
2019-02-19T07:10:40.793Z,3.05
2019-02-19T07:13:17.189Z,3.13
2019-02-19T07:15:48.568Z,3.23
2019-02-19T07:18:21.182Z,3.31
2019-02-19T07:20:52.676Z,3.41
2019-02-19T07:23:24.074Z,3.47
2019-02-19T07:25:55.579Z,3.55
2019-02-19T07:28:27.354Z,3.64
2019-02-19T07:30:58.845Z,3.71
2019-02-19T07:33:30.227Z,3.81
2019-02-19T07:36:01.996Z,3.88
2019-02-19T07:38:34.199Z,3.96
2019-02-19T07:41:05.592Z,4.04
2019-02-19T07:43:36.968Z,4.17
2019-02-19T07:46:08.427Z,4.32
2019-02-19T07:48:39.868Z,4.46
2019-02-19T07:51:11.223Z,4.60
2019-02-19T07:53:42.783Z,4.74
2019-02-19T07:56:14.168Z,4.89
2019-02-19T07:58:45.575Z,5.02
2019-02-19T08:01:17.004Z,5.17
2019-02-19T08:03:48.555Z,5.31
2019-02-19T08:06:22.122Z,5.44
2019-02-19T08:08:55.367Z,5.55
2019-02-19T08:11:28.198Z,5.75
2019-02-19T08:13:59.641Z,5.87
2019-02-19T08:16:31.040Z,6.04
2019-02-19T08:19:02.564Z,6.17
2019-02-19T08:21:33.939Z,6.34
2019-02-19T08:24:05.383Z,6.50
2019-02-19T08:26:36.813Z,6.59
2019-02-19T08:29:13.784Z,6.72
2019-02-19T08:31:42.366Z,6.87
2019-02-19T08:34:13.762Z,7.10
2019-02-19T08:36:45.189Z,7.35
2019-02-19T08:39:16.673Z,7.57
2019-02-19T08:41:48.126Z,7.90
2019-02-19T08:44:19.537Z,8.22
2019-02-19T08:46:50.937Z,8.52
2019-02-19T08:49:22.460Z,8.86
2019-02-19T08:51:56.097Z,9.50
2019-02-19T08:54:27.410Z,10.02
2019-02-19T08:57:00.324Z,10.70
2019-02-19T08:59:31.847Z,11.10
2019-02-19T09:02:03.266Z,11.42
2019-02-19T09:04:34.800Z,11.70
2019-02-19T09:07:06.258Z,11.82
2019-02-19T09:09:37.783Z,12.03
2019-02-19T09:12:09.198Z,12.09
2019-02-19T09:14:40.600Z,12.39
2019-02-19T09:17:12.006Z,12.67
2019-02-19T09:19:43.429Z,12.82
2019-02-19T09:22:16.947Z,13.09
2019-02-19T09:24:48.370Z,13.05
2019-02-19T09:27:19.783Z,13.27
2019-02-19T09:29:51.236Z,13.40
2019-02-19T09:32:22.734Z,13.42
2019-02-19T09:34:55.209Z,13.55
2019-02-19T09:37:26.611Z,13.77
2019-02-19T09:39:58.104Z,13.86
2019-02-19T09:42:29.492Z,14.15
2019-02-19T09:45:00.943Z,14.38
2019-02-19T09:47:33.608Z,14.24
2019-02-19T09:50:05.515Z,13.86
2019-02-19T09:52:36.978Z,13.90
2019-02-19T09:55:08.737Z,14.01
2019-02-19T09:57:40.127Z,13.78
2019-02-19T10:00:12.391Z,13.80
2019-02-19T10:02:44.108Z,13.23
2019-02-19T10:05:15.739Z,13.04
2019-02-19T10:07:47.303Z,13.21
2019-02-19T10:10:18.990Z,13.12
2019-02-19T10:12:50.540Z,13.33
2019-02-19T10:15:22.047Z,13.60
2019-02-19T10:17:53.590Z,13.69
2019-02-19T10:20:26.714Z,14.22
2019-02-19T10:22:58.208Z,14.65
2019-02-19T10:25:30.840Z,14.51
2019-02-19T10:28:02.273Z,14.60
2019-02-19T10:30:34.748Z,15.03
2019-02-19T10:33:06.292Z,15.30
2019-02-19T10:35:37.748Z,15.50
2019-02-19T10:38:09.321Z,15.47
2019-02-19T10:40:40.747Z,15.11
2019-02-19T10:43:12.183Z,15.08
2019-02-19T10:45:43.747Z,15.02
2019-02-19T10:48:19.061Z,14.88
2019-02-19T10:50:48.404Z,14.64
2019-02-19T10:53:19.917Z,14.65
2019-02-19T10:55:51.443Z,14.53
2019-02-19T10:58:23.383Z,14.70
2019-02-19T11:00:55.164Z,14.76
2019-02-19T11:03:26.639Z,14.70
2019-02-19T11:05:58.154Z,14.83
2019-02-19T11:08:29.571Z,15.13
2019-02-19T11:11:02.270Z,15.39
2019-02-19T11:13:33.787Z,15.38
2019-02-19T11:16:06.484Z,15.16
2019-02-19T11:18:39.443Z,14.96
2019-02-19T11:21:19.031Z,14.99
2019-02-19T11:23:44.045Z,15.17
2019-02-19T11:26:15.483Z,15.22
2019-02-19T11:28:46.898Z,15.35
2019-02-19T11:31:18.465Z,15.41
2019-02-19T11:33:50.041Z,15.41
2019-02-19T11:36:21.475Z,15.44
2019-02-19T11:38:52.970Z,15.27
2019-02-19T11:41:25.451Z,15.51
2019-02-19T11:43:56.928Z,15.26
2019-02-19T11:46:28.475Z,15.29
2019-02-19T11:49:00.354Z,15.17
2019-02-19T11:51:31.823Z,14.96
2019-02-19T11:54:03.218Z,14.71
2019-02-19T11:56:34.731Z,14.44
2019-02-19T11:59:08.758Z,14.56
2019-02-19T12:01:41.009Z,14.33
2019-02-19T12:04:12.481Z,14.43
2019-02-19T12:06:43.930Z,14.52
2019-02-19T12:09:15.370Z,14.38
2019-02-19T12:11:46.848Z,14.33
2019-02-19T12:14:18.307Z,14.12
2019-02-19T12:16:49.704Z,13.97
2019-02-19T12:19:22.326Z,13.97
2019-02-19T12:21:54.749Z,13.67
2019-02-19T12:24:26.184Z,13.62
2019-02-19T12:26:57.808Z,13.46
2019-02-19T12:29:29.814Z,13.41
2019-02-19T12:32:01.329Z,13.47
2019-02-19T12:34:32.885Z,13.56
2019-02-19T12:37:04.298Z,13.68
2019-02-19T12:39:35.731Z,13.67
2019-02-19T12:42:07.264Z,13.68
2019-02-19T12:44:40.374Z,13.56
2019-02-19T12:47:14.122Z,13.53
2019-02-19T12:49:45.505Z,13.20
2019-02-19T12:52:17.039Z,12.97
2019-02-19T12:54:48.898Z,12.92
2019-02-19T12:57:20.252Z,12.79
2019-02-19T12:59:56.537Z,12.70
2019-02-19T13:02:24.913Z,12.82
2019-02-19T13:04:56.378Z,12.84
2019-02-19T13:07:27.826Z,12.84
2019-02-19T13:09:59.346Z,12.75
2019-02-19T13:12:30.859Z,12.71
2019-02-19T13:15:02.389Z,12.63
2019-02-19T13:17:35.011Z,12.63
2019-02-19T13:20:07.099Z,12.51
2019-02-19T13:22:38.856Z,12.44
2019-02-19T13:25:10.767Z,12.19
2019-02-19T13:27:43.871Z,12.02
2019-02-19T13:30:16.120Z,11.89
2019-02-19T13:32:47.581Z,11.75
2019-02-19T13:35:19.062Z,11.54
2019-02-19T13:37:51.553Z,11.47
2019-02-19T13:40:23.137Z,11.37
2019-02-19T13:42:54.533Z,11.31
2019-02-19T13:45:27.534Z,11.28
2019-02-19T13:48:05.668Z,11.26
2019-02-19T13:50:32.076Z,11.20
2019-02-19T13:53:26.574Z,11.24
2019-02-19T13:55:59.017Z,11.25
2019-02-19T13:58:30.428Z,11.24
2019-02-19T14:01:01.914Z,11.18
2019-02-19T14:03:33.457Z,11.17
2019-02-19T14:06:04.892Z,11.08
2019-02-19T14:08:36.307Z,10.97
2019-02-19T14:11:07.782Z,10.85
2019-02-19T14:13:42.112Z,10.74
2019-02-19T14:16:20.522Z,10.64
2019-02-19T14:19:00.907Z,10.61
2019-02-19T14:22:09.695Z,10.57
2019-02-19T14:25:06.055Z,10.48
2019-02-19T14:27:55.613Z,10.40
2019-02-19T14:30:39.467Z,10.36
2019-02-19T14:33:27.423Z,10.31
2019-02-19T14:36:17.745Z,10.25
2019-02-19T14:39:06.883Z,10.17
2019-02-19T14:42:02.405Z,10.14
2019-02-19T14:44:52.750Z,10.11
2019-02-19T14:47:42.423Z,10.05
2019-02-19T14:50:47.961Z,10.01
2019-02-19T14:53:41.073Z,10.01
2019-02-19T14:56:30.313Z,10.04
2019-02-19T14:59:29.981Z,10.04
2019-02-19T15:02:19.231Z,10.05
2019-02-19T15:05:08.676Z,10.02
2019-02-19T15:07:45.834Z,10.00
2019-02-19T15:10:48.577Z,9.96
2019-02-19T15:13:42.070Z,9.92
2019-02-19T15:16:36.611Z,9.92
2019-02-19T15:19:39.313Z,9.94
2019-02-19T15:22:28.313Z,9.89
2019-02-19T15:25:12.357Z,9.85
2019-02-19T15:27:56.148Z,9.81
2019-02-19T15:30:37.686Z,9.76
2019-02-19T15:33:19.628Z,9.71
2019-02-19T15:36:13.172Z,9.66
2019-02-19T15:39:04.254Z,9.61
2019-02-19T15:42:00.035Z,9.59
2019-02-19T15:44:56.441Z,9.61
2019-02-19T15:47:39.861Z,9.58
2019-02-19T15:50:31.617Z,9.52
2019-02-19T15:53:21.949Z,9.50
2019-02-19T15:56:21.888Z,9.47
2019-02-19T15:59:02.725Z,9.41
2019-02-19T16:01:50.301Z,9.40
2019-02-19T16:04:36.759Z,9.40
2019-02-19T16:07:27.276Z,9.38
2019-02-19T16:10:20.076Z,9.35
2019-02-19T16:13:09.328Z,9.36
2019-02-19T16:15:55.601Z,9.34
2019-02-19T16:18:43.866Z,9.25
2019-02-19T16:21:41.929Z,9.25
2019-02-19T16:24:35.082Z,9.19
2019-02-19T16:27:15.177Z,9.15
2019-02-19T16:30:15.450Z,9.11
2019-02-19T16:33:17.015Z,9.09
2019-02-19T16:36:22.738Z,9.09
2019-02-19T16:39:18.443Z,9.05
2019-02-19T16:42:19.099Z,9.02
2019-02-19T16:45:13.434Z,8.91
2019-02-19T16:48:29.595Z,8.86
2019-02-19T16:51:19.640Z,8.79
2019-02-19T16:57:32.769Z,8.68
2019-02-19T17:00:13.236Z,8.67
2019-02-19T17:03:13.794Z,8.62
2019-02-19T17:05:58.516Z,8.61
2019-02-19T17:08:51.067Z,8.58
2019-02-19T17:11:32.607Z,8.55
2019-02-19T17:14:21.718Z,8.53
2019-02-19T17:17:10.983Z,8.51
2019-02-19T17:20:21.022Z,8.46
2019-02-19T17:23:05.004Z,8.41
2019-02-19T17:26:04.524Z,8.32
2019-02-19T17:29:04.237Z,8.27
2019-02-19T17:31:43.705Z,8.23
2019-02-19T17:34:30.738Z,8.15
2019-02-19T17:37:33.321Z,8.13
2019-02-19T17:40:27.078Z,8.08
2019-02-19T17:43:09.545Z,8.04
2019-02-19T17:46:03.466Z,8.00
2019-02-19T17:49:09.140Z,7.95
2019-02-19T17:52:14.845Z,7.93
2019-02-19T17:55:08.481Z,7.92
2019-02-19T17:57:57.080Z,7.88
2019-02-19T18:00:38.965Z,7.87
2019-02-19T18:03:36.381Z,7.83
2019-02-19T18:06:19.693Z,7.81
2019-02-19T18:09:11.283Z,7.85
2019-02-19T18:11:50.726Z,7.80
2019-02-19T18:15:01.952Z,7.80
2019-02-19T18:18:19.903Z,7.80
2019-02-19T18:20:52.005Z,7.83
2019-02-19T18:23:23.556Z,7.83
2019-02-19T18:25:55.196Z,7.87
2019-02-19T18:28:26.814Z,7.85
2019-02-19T18:30:58.452Z,7.91
2019-02-19T18:33:30.196Z,7.98
2019-02-19T18:36:01.587Z,8.02
2019-02-19T18:38:34.374Z,8.06
2019-02-19T18:41:06.283Z,8.08
2019-02-19T18:43:38.199Z,8.08
2019-02-19T18:46:12.701Z,8.09
2019-02-19T18:48:44.595Z,8.04
2019-02-19T18:51:16.145Z,8.02
2019-02-19T18:53:48.717Z,8.03
2019-02-19T18:56:20.461Z,8.05
2019-02-19T18:58:52.290Z,8.06
2019-02-19T19:01:24.092Z,8.05
2019-02-19T19:03:55.980Z,8.02
2019-02-19T19:06:28.144Z,8.01
2019-02-19T19:09:03.832Z,8.02
2019-02-19T19:15:09.683Z,8.02
2019-02-19T19:17:42.482Z,8.03
2019-02-19T19:20:15.176Z,8.03
2019-02-19T19:22:47.240Z,8.04
2019-02-19T19:25:19.314Z,8.04
2019-02-19T19:27:55.513Z,8.03
2019-02-19T19:30:28.357Z,8.04
2019-02-19T19:33:05.780Z,8.00
2019-02-19T19:35:39.134Z,8.00
2019-02-19T19:38:10.760Z,7.98
2019-02-19T19:40:43.166Z,7.98
2019-02-19T19:43:20.672Z,8.00
2019-02-19T19:45:52.071Z,8.00
2019-02-19T19:48:27.796Z,8.01
2019-02-19T19:51:03.470Z,7.99
2019-02-19T19:53:35.110Z,8.02
2019-02-19T19:56:12.627Z,8.00
2019-02-19T19:58:44.578Z,8.00
2019-02-19T20:01:16.274Z,7.98
2019-02-19T20:03:56.501Z,8.00
2019-02-19T20:06:28.197Z,7.99
2019-02-19T20:08:59.713Z,8.01
2019-02-19T20:11:31.379Z,8.04
2019-02-19T20:14:05.518Z,7.98
2019-02-19T20:16:38.465Z,7.93
2019-02-19T20:19:19.681Z,7.86
2019-02-19T20:21:52.919Z,7.72
2019-02-19T20:24:24.492Z,7.59
2019-02-19T20:26:56.219Z,7.50
2019-02-19T20:29:27.841Z,7.41
2019-02-19T20:32:00.977Z,7.33
2019-02-19T20:34:32.534Z,7.27
2019-02-19T20:37:07.167Z,7.19
2019-02-19T20:39:44.391Z,7.16
2019-02-19T20:42:16.067Z,7.16
2019-02-19T20:44:47.851Z,7.15
2019-02-19T20:47:19.979Z,7.14
2019-02-19T20:50:16.948Z,7.14
2019-02-19T20:52:50.219Z,7.18
2019-02-19T20:55:23.172Z,7.17
2019-02-19T20:58:00.443Z,7.14
2019-02-19T21:00:57.981Z,7.14
2019-02-19T21:03:31.748Z,7.16
2019-02-19T21:06:05.811Z,7.23
2019-02-19T21:08:55.784Z,7.25
2019-02-19T21:11:33.747Z,7.32
2019-02-19T21:14:05.429Z,7.38
2019-02-19T21:16:37.712Z,7.55
2019-02-19T21:19:12.026Z,7.54
2019-02-19T21:21:45.149Z,7.52
2019-02-19T21:24:18.253Z,7.50
2019-02-19T21:26:59.697Z,7.46
2019-02-19T21:29:47.049Z,7.41
2019-02-19T21:32:28.462Z,7.40
2019-02-19T21:35:10.942Z,7.38
2019-02-19T21:38:36.413Z,7.34
2019-02-19T21:41:27.509Z,7.23
2019-02-19T21:44:23.461Z,7.22
2019-02-19T21:47:01.139Z,7.15
2019-02-19T21:54:24.154Z,7.16
2019-02-19T22:00:54.900Z,7.16
2019-02-19T22:03:35.534Z,7.08
2019-02-19T22:06:44.551Z,7.09
2019-02-19T22:09:39.325Z,7.08
2019-02-19T22:12:23.513Z,7.09
2019-02-19T22:15:03.669Z,7.10
2019-02-19T22:17:41.420Z,7.09
2019-02-19T22:21:19.838Z,7.08
2019-02-19T22:24:02.254Z,7.05
2019-02-19T22:26:42.218Z,7.05
2019-02-19T22:29:35.250Z,7.13
2019-02-19T22:32:18.893Z,7.21
2019-02-19T22:35:02.304Z,7.28
2019-02-19T22:37:43.694Z,7.31
2019-02-19T22:40:14.994Z,7.35
2019-02-19T22:42:48.157Z,7.37
2019-02-19T22:45:19.606Z,7.34
2019-02-19T22:47:53.386Z,7.32
2019-02-19T22:50:24.401Z,7.31
2019-02-19T22:52:55.974Z,7.25
2019-02-19T22:55:52.392Z,7.29
2019-02-19T22:58:23.924Z,7.30
2019-02-19T23:01:12.459Z,7.24
2019-02-19T23:03:44.636Z,7.17
2019-02-19T23:06:16.121Z,7.09
2019-02-19T23:08:47.526Z,7.01
2019-02-19T23:11:19.333Z,7.00
2019-02-19T23:13:52.308Z,6.96
2019-02-19T23:16:23.782Z,6.91
2019-02-19T23:18:55.230Z,6.86
2019-02-19T23:21:26.721Z,6.84
2019-02-19T23:23:58.250Z,6.79
2019-02-19T23:26:29.747Z,6.78
2019-02-19T23:29:01.270Z,6.77
2019-02-19T23:31:33.923Z,6.71
2019-02-19T23:34:05.447Z,6.66
2019-02-19T23:36:58.215Z,6.69
2019-02-19T23:39:29.756Z,6.67
2019-02-19T23:42:01.242Z,6.67
2019-02-19T23:44:32.744Z,6.68
2019-02-19T23:47:05.122Z,6.65
2019-02-19T23:49:38.090Z,6.71
2019-02-19T23:52:09.598Z,6.74
2019-02-19T23:54:41.135Z,6.72
2019-02-19T23:57:12.852Z,6.71
2019-02-19T23:59:44.380Z,6.72
